Impacts METAR Board INFO
IDs:

KMCO - Orlando Intl, FL, US

Updated at: 1307 UTC 22 Nov 2017
Potential Impact None Slight Moderate High
Time22/01Z 22/02Z 22/03Z 22/04Z 22/05Z 22/06Z 22/07Z 22/08Z 22/09Z 22/10Z 22/11Z 22/12Z 22/13Z
VIS10 10 10 10 10 6 10 10 0.5 0.5 0.5 0.25 0.25
CIG-- 120 75 110 -- -- 14 11 3 2 2 1 2
CoverSCTBKNBKNBKNSCTFEWOVCBKNOVCOVXOVXOVXOVX
FltCatVFRVFRVFRVFRVFRVFRMVFRMVFRLIFRLIFRLIFRLIFRLIFR
WX----------BR----BRBRFGFGFG
WDir70003500330340340106036036070
WSpd4 0 0 3 0 4 7 5 4 6 6 3 4
WGst-- -- -- -- -- -- -- -- -- -- -- -- --
Raw hourly METARs
KMCO 220053Z 07004KT 10SM FEW020 SCT090 18/18 A2996 RMK AO2 SLP142 T01830178
KMCO 220153Z 00000KT 10SM SCT080 BKN120 19/18 A2996 RMK AO2 SLP143 T01890183
KMCO 220253Z 00000KT 10SM BKN075 BKN110 19/18 A2997 RMK AO2 SLP147 T01890183 53002
KMCO 220353Z COR 35003KT 10SM FEW038 SCT070 BKN110 19/18 A2996 RMK AO2 SLP145 T01890183
KMCO 220453Z 00000KT 10SM FEW038 FEW070 SCT250 18/18 A2995 RMK AO2 SLP139 T01830183 402390172
KMCO 220553Z 33004KT 6SM BR FEW035 FEW110 17/17 A2994 RMK AO2 SLP137 T01720172 10194 20167 56009
KMCO 220659Z 34007KT 10SM BKN014 BKN065 OVC250 18/18 A2995 RMK AO2 T01830183
KMCO 220753Z 34005KT 10SM BKN011 BKN065 18/18 A2995 RMK AO2 SLP140 T01780178
KMCO 220853Z 01004KT 1/2SM R35L/3000VP6000FT BR OVC003 18/18 A2994 RMK AO2 SFC VIS 1 SLP138 T01780178 50001
KMCO 220953Z 06006KT 1/2SM R35L/2200V4500FT BR VV002 18/18 A2993 RMK AO2 SFC VIS 3/4 SLP135 T01780178
KMCO 221055Z 36006KT 1/2SM R35L/1600V2200FT FG VV002 18/18 A2994 RMK AO2 T01780178
KMCO 221153Z 36003KT 1/4SM R35L/1400V1800FT FG VV001 17/17 A2996 RMK AO2 SLP143 70004 T01720172 10183 20172 53005
KMCO 221253Z 07004KT 1/4SM R35L/1200V2000FT FG VV002 18/18 A2997 RMK AO2 SFC VIS 1/2 SLP147 T01780178